createdAt,value
2022-09-24T00:01:16.056Z,0.01
2022-09-24T00:03:10.142Z,0.01
2022-09-24T00:05:09.780Z,0.01
2022-09-24T00:07:09.008Z,0.01
2022-09-24T00:09:09.458Z,0.8
2022-09-24T00:11:09.805Z,0.8
2022-09-24T00:13:09.332Z,0.8
2022-09-24T00:15:09.238Z,0.01
2022-09-24T00:17:09.907Z,0.01
2022-09-24T00:19:08.805Z,0.01
2022-09-24T00:21:09.118Z,0.8
2022-09-24T00:23:09.048Z,0.8
2022-09-24T00:25:09.257Z,0.8
2022-09-24T00:27:09.651Z,0.8
2022-09-24T00:29:09.519Z,0.8
2022-09-24T00:31:09.182Z,0.8
2022-09-24T00:33:09.215Z,0.8
2022-09-24T00:35:09.317Z,0.8
2022-09-24T00:37:09.617Z,0.8
2022-09-24T00:39:09.196Z,0.8
2022-09-24T00:41:10.259Z,0.8
2022-09-24T00:43:09.644Z,0.8
2022-09-24T00:45:09.463Z,0.8
2022-09-24T00:47:09.904Z,0.8
2022-09-24T00:49:08.830Z,0.8
2022-09-24T00:51:09.173Z,0.8
2022-09-24T00:53:09.460Z,0.8
2022-09-24T00:55:09.651Z,0.8
2022-09-24T00:57:09.339Z,0.8
2022-09-24T00:59:09.275Z,0.8
2022-09-24T01:01:12.050Z,0.8
2022-09-24T01:03:09.993Z,0.8
2022-09-24T01:05:09.100Z,0.8
2022-09-24T01:07:09.520Z,0.8
2022-09-24T01:09:09.488Z,0.8
2022-09-24T01:11:09.305Z,0.8
2022-09-24T01:13:09.556Z,0.8
2022-09-24T01:15:09.527Z,0.8
2022-09-24T01:17:09.614Z,0.8
2022-09-24T01:19:09.513Z,0.8
2022-09-24T01:21:09.281Z,0.8
2022-09-24T01:23:08.924Z,0.8
2022-09-24T01:25:09.373Z,0.8
2022-09-24T01:27:09.187Z,0.8
2022-09-24T01:29:09.471Z,0.05
2022-09-24T01:31:08.877Z,0.05
2022-09-24T01:33:13.983Z,0.05
2022-09-24T01:35:09.595Z,0.05
2022-09-24T01:37:08.942Z,0.05
2022-09-24T01:39:09.594Z,0.05
2022-09-24T01:41:09.463Z,0.05
2022-09-24T01:43:09.461Z,0.05
2022-09-24T01:45:09.202Z,0.05
2022-09-24T01:47:09.419Z,0.05
2022-09-24T01:49:09.584Z,0.05
2022-09-24T01:51:09.150Z,0.05
2022-09-24T01:53:09.530Z,0.05
2022-09-24T01:55:09.298Z,0.05
2022-09-24T01:57:08.889Z,0.05
2022-09-24T01:59:09.487Z,0.05
2022-09-24T02:01:10.860Z,0.05
2022-09-24T02:03:09.459Z,0.05
2022-09-24T02:05:09.161Z,0.05
2022-09-24T02:07:09.507Z,0.05
2022-09-24T02:09:09.091Z,0.05
2022-09-24T02:11:09.180Z,0.05
2022-09-24T02:13:09.123Z,0.05
2022-09-24T02:15:09.350Z,0.05
2022-09-24T02:17:09.790Z,0.05
2022-09-24T02:19:09.573Z,0.05
2022-09-24T02:21:08.990Z,0.05
2022-09-24T02:23:09.305Z,0.05
2022-09-24T02:25:08.866Z,0.05
2022-09-24T02:27:08.793Z,0.05
2022-09-24T02:29:09.278Z,0.05
2022-09-24T02:31:09.831Z,0.05
2022-09-24T02:33:09.512Z,0.05
2022-09-24T02:35:09.800Z,0.05
2022-09-24T02:37:09.647Z,0.05
2022-09-24T02:39:13.902Z,0.05
2022-09-24T02:41:09.789Z,0.05
2022-09-24T02:43:09.364Z,0.05
2022-09-24T02:45:09.663Z,0.05
2022-09-24T02:47:09.585Z,0.05
2022-09-24T02:49:09.322Z,0.05
2022-09-24T02:51:09.281Z,0.05
2022-09-24T02:53:09.478Z,0.05
2022-09-24T02:55:09.723Z,0.05
2022-09-24T02:57:08.890Z,0.05
2022-09-24T02:59:08.870Z,0.05
2022-09-24T03:01:11.612Z,0.05
2022-09-24T03:03:10.385Z,0.05
2022-09-24T03:05:09.258Z,0.05
2022-09-24T03:07:08.719Z,0.05
2022-09-24T03:09:09.060Z,0.05
2022-09-24T03:11:09.592Z,0.05
2022-09-24T03:13:08.971Z,0.05
2022-09-24T03:15:09.160Z,0.05
2022-09-24T03:17:09.212Z,0.05
2022-09-24T03:19:09.476Z,0.05
2022-09-24T03:21:09.435Z,0.05
2022-09-24T03:23:09.736Z,0.05
2022-09-24T03:25:09.599Z,0.05
2022-09-24T03:27:09.109Z,0.05
2022-09-24T03:29:09.358Z,0.05
2022-09-24T03:31:08.956Z,0.05
2022-09-24T03:33:09.415Z,0.05
2022-09-24T03:35:09.726Z,0.13
2022-09-24T03:37:09.480Z,0.11
2022-09-24T03:39:09.036Z,0.11
2022-09-24T03:41:10.579Z,0.03
2022-09-24T03:43:09.757Z,2.46
2022-09-24T03:45:09.345Z,2.46
2022-09-24T03:47:09.689Z,2.46
2022-09-24T03:49:10.232Z,2.46
2022-09-24T03:51:09.542Z,2.46
2022-09-24T03:53:09.061Z,2.46
2022-09-24T03:55:09.917Z,2.46
2022-09-24T03:57:09.252Z,2.46
2022-09-24T03:59:09.006Z,2.46
2022-09-24T04:01:15.110Z,2.46
2022-09-24T04:03:10.272Z,2.46
2022-09-24T04:05:09.751Z,2.46
2022-09-24T04:07:11.231Z,2.46
2022-09-24T04:09:09.626Z,2.46
2022-09-24T04:11:09.222Z,2.46
2022-09-24T04:13:09.462Z,2.46
2022-09-24T04:15:09.219Z,2.46
2022-09-24T04:17:09.374Z,2.46
2022-09-24T04:19:13.262Z,2.46
2022-09-24T04:21:09.540Z,2.46
2022-09-24T04:23:09.348Z,2.46
2022-09-24T04:25:14.550Z,2.46
2022-09-24T04:27:09.985Z,2.46
2022-09-24T04:29:09.315Z,2.46
2022-09-24T04:31:09.939Z,2.46
2022-09-24T04:33:08.974Z,2.46
2022-09-24T04:35:09.283Z,2.46
2022-09-24T04:37:09.498Z,2.46
2022-09-24T04:39:09.028Z,2.46
2022-09-24T04:41:10.397Z,2.46
2022-09-24T04:43:09.424Z,2.46
2022-09-24T04:45:09.728Z,2.46
2022-09-24T04:47:09.797Z,2.46
2022-09-24T04:49:09.062Z,2.46
2022-09-24T04:51:09.879Z,2.46
2022-09-24T04:53:09.355Z,2.46
2022-09-24T04:55:09.648Z,2.46
2022-09-24T04:57:08.817Z,2.46
2022-09-24T04:59:09.462Z,2.46
2022-09-24T05:01:12.691Z,2.46
2022-09-24T05:03:18.128Z,2.46
2022-09-24T05:05:09.039Z,2.46
2022-09-24T05:07:09.205Z,2.46
2022-09-24T05:09:12.567Z,2.46
2022-09-24T05:11:09.573Z,2.46
2022-09-24T05:13:09.911Z,2.46
2022-09-24T05:15:09.871Z,2.46
2022-09-24T05:17:10.013Z,2.46
2022-09-24T05:19:09.218Z,2.46
2022-09-24T05:21:08.895Z,2.46
2022-09-24T05:23:08.841Z,2.46
2022-09-24T05:25:09.578Z,2.46
2022-09-24T05:27:09.615Z,2.46
2022-09-24T05:29:08.842Z,2.46
2022-09-24T05:31:09.418Z,2.46
2022-09-24T05:33:08.880Z,2.46
2022-09-24T05:35:09.076Z,2.46
2022-09-24T05:37:08.764Z,2.46
2022-09-24T05:39:09.101Z,2.46
2022-09-24T05:41:10.249Z,2.46
2022-09-24T05:43:09.128Z,2.46
2022-09-24T05:45:14.648Z,2.46
2022-09-24T05:47:10.272Z,2.46
2022-09-24T05:49:09.162Z,2.46
2022-09-24T05:51:09.417Z,2.46
2022-09-24T05:53:09.612Z,2.46
2022-09-24T05:55:09.495Z,2.46
2022-09-24T05:57:09.685Z,2.46
2022-09-24T05:59:09.135Z,2.46
2022-09-24T06:01:14.650Z,2.46
2022-09-24T06:03:09.761Z,2.46
2022-09-24T06:05:16.205Z,2.46
2022-09-24T06:07:09.496Z,2.46
2022-09-24T06:09:09.911Z,2.46
2022-09-24T06:11:09.731Z,2.46
2022-09-24T06:13:09.660Z,2.46
2022-09-24T06:15:09.461Z,2.46
2022-09-24T06:17:09.591Z,2.46
2022-09-24T06:19:08.864Z,2.46
2022-09-24T06:21:09.616Z,2.46
2022-09-24T06:23:13.955Z,2.46
2022-09-24T06:25:09.100Z,2.46
2022-09-24T06:27:08.776Z,2.46
2022-09-24T06:29:16.058Z,2.46
2022-09-24T06:31:09.271Z,2.46
2022-09-24T06:33:09.422Z,2.46
2022-09-24T06:35:10.709Z,2.46
2022-09-24T06:37:09.094Z,2.46
2022-09-24T06:39:09.555Z,2.46
2022-09-24T06:41:11.767Z,2.46
2022-09-24T06:43:09.603Z,2.46
2022-09-24T06:45:08.874Z,2.46
2022-09-24T06:47:09.997Z,2.46
2022-09-24T06:49:09.693Z,2.46
2022-09-24T06:51:09.153Z,2.46
2022-09-24T06:53:09.583Z,2.46
2022-09-24T06:55:09.295Z,2.46
2022-09-24T06:57:09.220Z,2.46
2022-09-24T06:59:09.440Z,2.46
2022-09-24T07:01:11.744Z,2.46
2022-09-24T07:03:09.368Z,2.46
2022-09-24T07:05:09.394Z,2.46
2022-09-24T07:07:09.669Z,2.46
2022-09-24T07:09:08.961Z,2.46
2022-09-24T07:11:09.248Z,2.46
2022-09-24T07:13:09.349Z,2.46
2022-09-24T07:15:08.921Z,2.46
2022-09-24T07:17:09.709Z,2.46
2022-09-24T07:19:09.155Z,2.46
2022-09-24T07:21:09.653Z,2.46
2022-09-24T07:23:09.529Z,2.46
2022-09-24T07:25:09.641Z,2.46
2022-09-24T07:27:09.239Z,2.46
2022-09-24T07:29:09.726Z,2.46
2022-09-24T07:31:09.240Z,2.46
2022-09-24T07:33:15.131Z,2.46
2022-09-24T07:35:09.499Z,2.46
2022-09-24T07:37:09.704Z,2.46
2022-09-24T07:39:09.131Z,2.46
2022-09-24T07:41:09.688Z,2.46
2022-09-24T07:43:08.842Z,2.46
2022-09-24T07:45:08.819Z,2.46
2022-09-24T07:47:15.259Z,2.46
2022-09-24T07:49:09.605Z,0.23
2022-09-24T07:51:09.098Z,0.18
2022-09-24T07:53:09.333Z,0.18
2022-09-24T07:55:13.619Z,0.04
2022-09-24T07:57:09.508Z,0.03
2022-09-24T07:59:09.203Z,0.03
2022-09-24T08:01:11.323Z,0.02
2022-09-24T08:03:09.907Z,1.83
2022-09-24T08:05:10.104Z,1.83
2022-09-24T08:07:13.477Z,0.01
2022-09-24T08:09:08.840Z,0.01
2022-09-24T08:11:08.848Z,0.01
2022-09-24T08:13:09.369Z,0.01
2022-09-24T08:15:09.383Z,1.23
2022-09-24T08:17:09.759Z,1.23
2022-09-24T08:19:09.497Z,0.01
2022-09-24T08:21:08.948Z,1.13
2022-09-24T08:23:09.412Z,1.13
2022-09-24T08:25:09.673Z,0.01
2022-09-24T08:27:11.584Z,1.03
2022-09-24T08:29:09.544Z,1.03
2022-09-24T08:31:09.732Z,0.97
2022-09-24T08:33:09.564Z,0.01
2022-09-24T08:35:09.228Z,0.01
2022-09-24T08:37:15.946Z,0.01
2022-09-24T08:39:09.369Z,0.01
2022-09-24T08:41:09.750Z,0.01
2022-09-24T08:43:09.445Z,0.01
2022-09-24T08:45:09.460Z,0.01
2022-09-24T08:47:09.771Z,0.01
2022-09-24T08:49:08.737Z,0.92
2022-09-24T08:51:09.816Z,0.91
2022-09-24T08:53:08.869Z,0.91
2022-09-24T08:55:09.313Z,0.01
2022-09-24T08:57:09.371Z,0.01
2022-09-24T08:59:15.656Z,0.01
2022-09-24T09:01:12.303Z,0.01
2022-09-24T09:03:10.388Z,0.89
2022-09-24T09:05:09.469Z,0.89
2022-09-24T09:07:09.011Z,0.01
2022-09-24T09:09:52.497Z,0.01
2022-09-24T09:11:09.059Z,0.01
2022-09-24T09:13:09.706Z,0.01
2022-09-24T09:15:16.346Z,0.83
2022-09-24T09:17:09.949Z,0.83
2022-09-24T09:19:09.033Z,0.8
2022-09-24T09:21:08.878Z,0.01
2022-09-24T09:23:09.359Z,0.01
2022-09-24T09:25:15.073Z,0.01
2022-09-24T09:27:08.941Z,0.78
2022-09-24T09:29:08.897Z,0.78
2022-09-24T09:31:10.920Z,0.01
2022-09-24T09:33:09.450Z,0.78
2022-09-24T09:35:09.430Z,0.78
2022-09-24T09:37:09.268Z,0.78
2022-09-24T09:39:09.733Z,0.01
2022-09-24T09:41:16.891Z,0.01
2022-09-24T09:43:09.472Z,0.01
2022-09-24T09:45:09.600Z,0.01
2022-09-24T09:47:09.476Z,0.01
2022-09-24T09:49:09.471Z,0.01
2022-09-24T09:51:08.916Z,0.01
2022-09-24T09:53:09.057Z,0.01
2022-09-24T09:55:09.254Z,0.01
2022-09-24T09:57:09.474Z,0.01
2022-09-24T09:59:08.713Z,0.01
2022-09-24T10:01:11.905Z,0.01
2022-09-24T10:03:10.294Z,0.01
2022-09-24T10:05:08.912Z,0.01
2022-09-24T10:07:09.443Z,0.01
2022-09-24T10:09:09.663Z,0.01
2022-09-24T10:11:09.118Z,0.01
2022-09-24T10:13:09.540Z,0.01
2022-09-24T10:15:09.213Z,0.01
2022-09-24T10:17:09.888Z,0.01
2022-09-24T10:19:09.067Z,0.01
2022-09-24T10:21:09.310Z,0.01
2022-09-24T10:23:09.298Z,0.01
2022-09-24T10:25:09.030Z,0.01
2022-09-24T10:27:14.690Z,0.01
2022-09-24T10:29:09.198Z,0.01
2022-09-24T10:31:09.685Z,0.01
2022-09-24T10:33:09.622Z,0.01
2022-09-24T10:35:09.225Z,0.01
2022-09-24T10:37:11.183Z,0.01
2022-09-24T10:39:08.909Z,0.01
2022-09-24T10:41:09.581Z,0.01
2022-09-24T10:43:09.722Z,0.01
2022-09-24T10:45:15.291Z,0.01
2022-09-24T10:47:10.474Z,0.01
2022-09-24T10:49:09.310Z,0.01
2022-09-24T10:51:09.651Z,0.01
2022-09-24T10:53:09.102Z,0.01
2022-09-24T10:55:09.411Z,0.01
2022-09-24T10:57:09.549Z,0.01
2022-09-24T10:59:09.805Z,0.01
2022-09-24T11:01:11.638Z,0.01
2022-09-24T11:03:10.906Z,0.07
2022-09-24T11:05:12.923Z,0.07
2022-09-24T11:07:08.868Z,0.07
2022-09-24T11:09:09.778Z,1.92
2022-09-24T11:11:09.716Z,1.92
2022-09-24T11:13:09.370Z,1.92
2022-09-24T11:15:09.757Z,0.01
2022-09-24T11:17:09.977Z,0.01
2022-09-24T11:19:09.433Z,0.01
2022-09-24T11:21:09.918Z,0.01
2022-09-24T11:23:09.250Z,0.01
2022-09-24T11:25:09.078Z,0.01
2022-09-24T11:27:10.079Z,0.01
2022-09-24T11:29:09.577Z,0.01
2022-09-24T11:31:09.636Z,0.01
2022-09-24T11:33:09.330Z,0.86
2022-09-24T11:35:10.010Z,0.86
2022-09-24T11:37:09.307Z,0.86
2022-09-24T11:39:09.208Z,0.82
2022-09-24T11:41:10.631Z,0.82
2022-09-24T11:43:08.908Z,0.82
2022-09-24T11:45:09.529Z,0.01
2022-09-24T11:47:09.840Z,0.01
2022-09-24T11:49:08.872Z,0.01
2022-09-24T11:51:10.689Z,0.01
2022-09-24T11:53:09.443Z,0.01
2022-09-24T11:55:10.438Z,0.01
2022-09-24T11:57:10.130Z,0.79
2022-09-24T11:59:09.698Z,0.79
2022-09-24T12:01:11.551Z,0.79
2022-09-24T12:03:10.098Z,0.78
2022-09-24T12:05:09.613Z,0.78
2022-09-24T12:07:09.397Z,0.78
2022-09-24T12:09:08.879Z,0.01
2022-09-24T12:11:09.119Z,0.01
2022-09-24T12:13:09.155Z,0.01
2022-09-24T12:15:09.522Z,0.01
2022-09-24T12:17:10.009Z,0.01
2022-09-24T12:19:09.665Z,0.01
2022-09-24T12:21:08.936Z,0.01
2022-09-24T12:23:09.341Z,0.01
2022-09-24T12:25:11.166Z,0.01
2022-09-24T12:27:09.650Z,0.82
2022-09-24T12:29:09.465Z,0.82
2022-09-24T12:31:12.258Z,0.82
2022-09-24T12:33:09.404Z,0.88
2022-09-24T12:35:09.746Z,0.88
2022-09-24T12:37:09.670Z,0.88
2022-09-24T12:39:09.794Z,0.01
2022-09-24T12:41:10.358Z,0.01
2022-09-24T12:43:08.824Z,0.01
2022-09-24T12:45:14.683Z,0.83
2022-09-24T12:47:10.497Z,0.83
2022-09-24T12:49:08.878Z,0.83
2022-09-24T12:51:09.693Z,0.01
2022-09-24T12:53:09.053Z,0.01
2022-09-24T12:55:09.585Z,0.01
2022-09-24T12:57:09.687Z,0.78
2022-09-24T12:59:09.069Z,0.78
2022-09-24T13:01:12.689Z,0.78
2022-09-24T13:03:10.681Z,0.78
2022-09-24T13:05:09.635Z,0.78
2022-09-24T13:07:09.455Z,0.78
2022-09-24T13:09:09.319Z,0.78
2022-09-24T13:11:09.783Z,0.78
2022-09-24T13:13:09.311Z,0.78
2022-09-24T13:15:09.474Z,0.77
2022-09-24T13:17:09.686Z,0.77
2022-09-24T13:19:09.697Z,0.77
2022-09-24T13:21:12.916Z,0.77
2022-09-24T13:23:09.177Z,0.77
2022-09-24T13:25:09.436Z,0.77
2022-09-24T13:27:09.507Z,0.01
2022-09-24T13:29:13.555Z,0.01
2022-09-24T13:31:10.068Z,0.01
2022-09-24T13:33:08.991Z,0.77
2022-09-24T13:35:09.431Z,0.77
2022-09-24T13:37:09.537Z,0.77
2022-09-24T13:39:09.395Z,0.76
2022-09-24T13:41:09.604Z,0.76
2022-09-24T13:43:09.590Z,0.76
2022-09-24T13:45:10.019Z,0.75
2022-09-24T13:47:09.403Z,0.75
2022-09-24T13:49:09.303Z,0.75
2022-09-24T13:51:09.559Z,0.01
2022-09-24T13:53:09.489Z,0.01
2022-09-24T13:55:08.750Z,0.01
2022-09-24T13:57:09.034Z,0.01
2022-09-24T13:59:09.019Z,0.01
2022-09-24T14:01:13.063Z,0.01
2022-09-24T14:03:10.024Z,0.01
2022-09-24T14:05:09.131Z,0.01
2022-09-24T14:07:08.805Z,0.01
2022-09-24T14:09:09.632Z,0.01
2022-09-24T14:11:08.971Z,0.01
2022-09-24T14:13:08.928Z,0.01
2022-09-24T14:15:09.444Z,0.01
2022-09-24T14:17:09.627Z,0.01
2022-09-24T14:19:09.593Z,0.01
2022-09-24T14:21:09.423Z,0.01
2022-09-24T14:23:09.430Z,0.01
2022-09-24T14:25:09.647Z,0.01
2022-09-24T14:27:08.809Z,0.72
2022-09-24T14:29:08.824Z,0.72
2022-09-24T14:31:09.617Z,0.72
2022-09-24T14:33:09.714Z,0.01
2022-09-24T14:35:08.800Z,0.01
2022-09-24T14:37:08.937Z,0.01
2022-09-24T14:39:15.364Z,0.71
2022-09-24T14:41:10.998Z,0.71
2022-09-24T14:43:09.170Z,0.71
2022-09-24T14:45:09.665Z,0.01
2022-09-24T14:47:10.357Z,0.01
2022-09-24T14:49:08.898Z,0.01
2022-09-24T14:51:09.248Z,0.71
2022-09-24T14:53:08.771Z,0.71
2022-09-24T14:55:09.683Z,0.71
2022-09-24T14:57:08.885Z,0.01
2022-09-24T14:59:09.367Z,0.01
2022-09-24T15:01:09.908Z,0.01
2022-09-24T15:03:09.304Z,0.01
2022-09-24T15:05:16.220Z,0.01
2022-09-24T15:07:09.367Z,0.01
2022-09-24T15:09:08.838Z,0.01
2022-09-24T15:11:09.467Z,0.01
2022-09-24T15:13:09.641Z,0.01
2022-09-24T15:15:09.165Z,0.01
2022-09-24T15:17:09.819Z,0.01
2022-09-24T15:19:08.781Z,0.01
2022-09-24T15:21:09.179Z,0.01
2022-09-24T15:23:09.495Z,0.01
2022-09-24T15:25:13.645Z,0.01
2022-09-24T15:27:09.469Z,0.01
2022-09-24T15:29:08.959Z,0.01
2022-09-24T15:31:09.686Z,0.01
2022-09-24T15:33:09.518Z,0.01
2022-09-24T15:35:15.954Z,0.01
2022-09-24T15:37:09.532Z,0.01
2022-09-24T15:39:08.892Z,0.01
2022-09-24T15:41:09.898Z,0.01
2022-09-24T15:43:09.103Z,0.01
2022-09-24T15:45:14.878Z,0.01
2022-09-24T15:47:09.997Z,0.01
2022-09-24T15:49:09.300Z,0.01
2022-09-24T15:51:11.890Z,0.01
2022-09-24T15:53:09.681Z,0.01
2022-09-24T15:55:08.828Z,0.01
2022-09-24T15:57:08.952Z,0.01
2022-09-24T15:59:15.623Z,0.01
2022-09-24T16:01:11.869Z,0.01
2022-09-24T16:03:09.843Z,0.65
2022-09-24T16:05:15.307Z,0.65
2022-09-24T16:07:09.645Z,0.65
2022-09-24T16:09:08.715Z,0.65
2022-09-24T16:11:09.423Z,0.65
2022-09-24T16:13:09.699Z,0.65
2022-09-24T16:15:09.703Z,0.64
2022-09-24T16:17:13.306Z,0.64
2022-09-24T16:19:09.437Z,0.64
2022-09-24T16:21:09.389Z,0.01
2022-09-24T16:23:14.320Z,0.01
2022-09-24T16:25:09.538Z,0.01
2022-09-24T16:27:09.442Z,0.64
2022-09-24T16:29:09.604Z,0.64
2022-09-24T16:31:12.813Z,0.64
2022-09-24T16:33:09.397Z,0.64
2022-09-24T16:35:09.710Z,0.64
2022-09-24T16:37:08.806Z,0.64
2022-09-24T16:39:09.260Z,0.01
2022-09-24T16:41:09.463Z,0.01
2022-09-24T16:43:09.159Z,0.01
2022-09-24T16:45:09.739Z,0.62
2022-09-24T16:47:16.449Z,0.62
2022-09-24T16:49:09.722Z,0.62
2022-09-24T16:51:08.734Z,0.01
2022-09-24T16:53:09.884Z,0.01
2022-09-24T16:55:09.751Z,0.01
2022-09-24T16:57:08.921Z,0.61
2022-09-24T16:59:09.844Z,0.61
2022-09-24T17:01:11.607Z,0.61
2022-09-24T17:03:10.599Z,0.01
2022-09-24T17:05:12.869Z,0.01
2022-09-24T17:07:09.420Z,0.01
2022-09-24T17:09:09.403Z,0.01
2022-09-24T17:11:13.983Z,0.01
2022-09-24T17:13:10.044Z,0.01
2022-09-24T17:15:09.126Z,0.01
2022-09-24T17:17:09.843Z,0.01
2022-09-24T17:19:09.153Z,0.01
2022-09-24T17:21:08.860Z,0.59
2022-09-24T17:23:09.225Z,0.59
2022-09-24T17:25:11.669Z,0.59
2022-09-24T17:27:08.944Z,0.01
2022-09-24T17:29:09.146Z,0.01
2022-09-24T17:31:09.711Z,0.01
2022-09-24T17:33:38.797Z,0.59
2022-09-24T17:35:09.525Z,0.59
2022-09-24T17:37:09.039Z,0.59
2022-09-24T17:39:09.184Z,0.59
2022-09-24T17:41:10.209Z,0.59
2022-09-24T17:43:09.687Z,0.59
2022-09-24T17:45:09.607Z,0.01
2022-09-24T17:47:12.001Z,0.01
2022-09-24T17:49:08.920Z,0.01
2022-09-24T17:51:09.163Z,0.01
2022-09-24T17:53:12.413Z,0.01
2022-09-24T17:55:09.729Z,0.01
2022-09-24T17:57:08.750Z,0.59
2022-09-24T17:59:09.714Z,0.59
2022-09-24T18:01:12.317Z,0.59
2022-09-24T18:03:10.243Z,0.01
2022-09-24T18:05:09.663Z,0.01
2022-09-24T18:07:08.866Z,0.01
2022-09-24T18:09:08.753Z,0.01
2022-09-24T18:11:09.105Z,0.01
2022-09-24T18:13:13.575Z,0.01
2022-09-24T18:15:08.929Z,0.01
2022-09-24T18:17:09.543Z,0.01
2022-09-24T18:19:08.913Z,0.01
2022-09-24T18:21:09.411Z,0.59
2022-09-24T18:23:09.700Z,0.59
2022-09-24T18:25:09.134Z,0.59
2022-09-24T18:27:14.071Z,0.01
2022-09-24T18:29:14.828Z,0.01
2022-09-24T18:31:09.498Z,0.01
2022-09-24T18:33:09.156Z,0.01
2022-09-24T18:35:09.879Z,0.01
2022-09-24T18:37:09.047Z,0.01
2022-09-24T18:39:09.851Z,0.01
2022-09-24T18:41:09.414Z,0.01
2022-09-24T18:43:09.512Z,0.01
2022-09-24T18:45:09.169Z,0.6
2022-09-24T18:47:10.567Z,0.6
2022-09-24T18:49:09.020Z,0.6
2022-09-24T18:51:10.254Z,0.01
2022-09-24T18:53:08.982Z,0.01
2022-09-24T18:55:09.240Z,0.01
2022-09-24T18:57:09.089Z,0.62
2022-09-24T18:59:10.080Z,0.62
2022-09-24T19:01:13.756Z,0.62
2022-09-24T19:03:11.468Z,0.01
2022-09-24T19:05:13.096Z,0.01
2022-09-24T19:07:09.139Z,0.01
2022-09-24T19:09:09.647Z,0.63
2022-09-24T19:11:09.016Z,0.63
2022-09-24T19:13:09.440Z,0.63
2022-09-24T19:15:09.112Z,0.62
2022-09-24T19:17:10.022Z,0.62
2022-09-24T19:19:09.151Z,0.62
2022-09-24T19:21:09.601Z,0.01
2022-09-24T19:23:09.540Z,0.01
2022-09-24T19:25:09.142Z,0.01
2022-09-24T19:27:09.880Z,0.62
2022-09-24T19:29:09.587Z,0.62
2022-09-24T19:31:09.906Z,0.62
2022-09-24T19:33:09.088Z,0.62
2022-09-24T19:35:09.426Z,0.62
2022-09-24T19:37:16.428Z,0.62
2022-09-24T19:39:09.377Z,0.61
2022-09-24T19:41:09.649Z,0.61
2022-09-24T19:43:09.199Z,0.61
2022-09-24T19:45:16.264Z,0.61
2022-09-24T19:47:10.334Z,0.61
2022-09-24T19:49:09.150Z,0.61
2022-09-24T19:51:14.072Z,0.01
2022-09-24T19:53:09.143Z,0.01
2022-09-24T19:55:10.288Z,0.01
2022-09-24T19:57:09.376Z,0.01
2022-09-24T19:59:09.213Z,0.01
2022-09-24T20:01:16.343Z,0.01
2022-09-24T20:03:10.177Z,0.01
2022-09-24T20:05:09.395Z,0.01
2022-09-24T20:07:16.400Z,0.01
2022-09-24T20:09:09.531Z,0.01
2022-09-24T20:11:09.784Z,0.01
2022-09-24T20:13:09.549Z,0.01
2022-09-24T20:15:09.912Z,0.01
2022-09-24T20:17:09.941Z,0.01
2022-09-24T20:19:09.457Z,0.01
2022-09-24T20:21:10.046Z,0.01
2022-09-24T20:23:13.885Z,0.01
2022-09-24T20:25:10.385Z,0.01
2022-09-24T20:27:09.619Z,0.01
2022-09-24T20:29:11.434Z,0.01
2022-09-24T20:31:10.991Z,0.01
2022-09-24T20:33:09.543Z,0.01
2022-09-24T20:35:09.686Z,0.01
2022-09-24T20:37:13.048Z,0.01
2022-09-24T20:39:10.317Z,0.01
2022-09-24T20:41:11.052Z,0.01
2022-09-24T20:43:11.665Z,0.01
2022-09-24T20:45:16.586Z,0.01
2022-09-24T20:47:11.047Z,0.01
2022-09-24T20:49:09.669Z,0.01
2022-09-24T20:51:09.855Z,0.01
2022-09-24T20:53:11.591Z,0.01
2022-09-24T20:55:10.172Z,0.01
2022-09-24T20:57:09.958Z,0.01
2022-09-24T20:59:09.912Z,0.01
2022-09-24T21:01:13.264Z,0.01
2022-09-24T21:03:44.908Z,0.04
2022-09-24T21:05:10.479Z,0.04
2022-09-24T21:07:10.030Z,0.04
2022-09-24T21:09:16.442Z,0.01
2022-09-24T21:11:10.879Z,0.01
2022-09-24T21:13:14.018Z,0.01
2022-09-24T21:15:10.360Z,0.01
2022-09-24T21:17:11.555Z,0.01
2022-09-24T21:19:38.727Z,0.01
2022-09-24T21:21:09.444Z,0.01
2022-09-24T21:23:09.769Z,0.01
2022-09-24T21:25:30.366Z,0.01
2022-09-24T21:27:09.376Z,0.01
2022-09-24T21:29:09.650Z,0.01
2022-09-24T21:31:10.057Z,0.01
2022-09-24T21:33:09.584Z,0.01
2022-09-24T21:35:09.786Z,0.01
2022-09-24T21:37:16.801Z,0.01
2022-09-24T21:39:09.486Z,0.01
2022-09-24T21:41:09.965Z,0.01
2022-09-24T21:43:09.432Z,0.01
2022-09-24T21:45:09.455Z,0.01
2022-09-24T21:47:09.813Z,0.01
2022-09-24T21:49:09.249Z,0.01
2022-09-24T21:51:14.111Z,0.01
2022-09-24T21:53:08.834Z,0.01
2022-09-24T21:55:09.582Z,0.01
2022-09-24T21:57:08.912Z,0.01
2022-09-24T21:59:08.844Z,0.01
2022-09-24T22:01:16.915Z,0.01
2022-09-24T22:03:13.879Z,0.01
2022-09-24T22:05:08.984Z,0.01
2022-09-24T22:07:09.282Z,0.01
2022-09-24T22:09:09.379Z,0.01
2022-09-24T22:11:09.576Z,0.01
2022-09-24T22:13:09.136Z,0.01
2022-09-24T22:15:09.470Z,4.94
2022-09-24T22:17:10.302Z,0.05
2022-09-24T22:19:08.931Z,0.05
2022-09-24T22:21:09.662Z,0.05
2022-09-24T22:23:08.755Z,0.05
2022-09-24T22:25:09.372Z,0.05
2022-09-24T22:27:08.842Z,0.05
2022-09-24T22:29:12.647Z,0.05
2022-09-24T22:31:09.415Z,0.05
2022-09-24T22:33:08.910Z,0.05
2022-09-24T22:35:09.035Z,0.05
2022-09-24T22:37:09.718Z,0.05
2022-09-24T22:39:09.763Z,0.05
2022-09-24T22:41:09.937Z,0.05
2022-09-24T22:43:09.417Z,0.05
2022-09-24T22:45:09.387Z,0.05
2022-09-24T22:47:10.470Z,0.05
2022-09-24T22:49:09.613Z,0.05
2022-09-24T22:51:09.826Z,0.05
2022-09-24T22:53:09.029Z,0.05
2022-09-24T22:55:09.447Z,0.05
2022-09-24T22:57:09.704Z,0.05
2022-09-24T22:59:09.492Z,0.05
2022-09-24T23:01:12.544Z,0.05
2022-09-24T23:03:09.929Z,0.05
2022-09-24T23:05:10.220Z,0.05
2022-09-24T23:07:09.399Z,0.05
2022-09-24T23:09:09.770Z,0.05
2022-09-24T23:11:09.820Z,0.05
2022-09-24T23:13:09.377Z,0.05
2022-09-24T23:15:09.064Z,0.05
2022-09-24T23:17:09.891Z,0.05
2022-09-24T23:19:09.667Z,0.05
2022-09-24T23:21:09.159Z,0.05
2022-09-24T23:23:09.673Z,0.06
2022-09-24T23:25:09.168Z,0.06
2022-09-24T23:27:13.112Z,0.06
2022-09-24T23:29:09.365Z,1.75
2022-09-24T23:31:09.847Z,1.75
2022-09-24T23:33:09.071Z,1.75
2022-09-24T23:35:09.127Z,1.75
2022-09-24T23:37:08.826Z,1.75
2022-09-24T23:39:09.262Z,1.75
2022-09-24T23:41:09.362Z,1.75
2022-09-24T23:43:09.492Z,1.75
2022-09-24T23:45:09.801Z,1.75
2022-09-24T23:47:09.583Z,1.75
2022-09-24T23:49:09.472Z,1.75
2022-09-24T23:51:09.165Z,1.75
2022-09-24T23:53:09.390Z,1.75
2022-09-24T23:55:08.749Z,1.75
2022-09-24T23:57:08.855Z,1.75
2022-09-24T23:59:09.598Z,1.75
